Time;durP1;ratioP1;P1;durP2;ratioP2;P2;SDS_P1;SDS_P2;PMS_P1;PMS_P2;Temp;Humidity;BMP_temperature;BMP_pressure;BME280_temperature;BME280_humidity;BME280_pressure;Samples;Min_cycle;Max_cycle;Signal;HPM_P1;HPM_P2
2021/12/21 00:00:22;;;;;;;9.00;6.07;;;4.30;1.00;;;;;;5046869;28;20214;-63
2021/12/21 00:02:52;;;;;;;9.20;6.57;;;4.30;1.00;;;;;;5050959;28;20448;-63
2021/12/21 00:05:20;;;;;;;10.60;6.93;;;4.10;1.00;;;;;;5050246;28;20938;-62
2021/12/21 00:07:50;;;;;;;9.17;6.70;;;4.00;1.00;;;;;;5050922;28;20576;-63
2021/12/21 00:10:17;;;;;;;8.50;6.17;;;4.00;1.00;;;;;;5046883;28;20474;-62
2021/12/21 00:13:02;;;;;;;9.93;6.77;;;4.10;1.00;;;;;;5047256;28;20933;-63
2021/12/21 00:18:06;;;;;;;10.60;6.87;;;4.20;1.00;;;;;;5050809;28;21019;-64
2021/12/21 00:20:58;;;;;;;16.17;7.53;;;4.10;1.00;;;;;;5049547;28;20790;-63
2021/12/21 00:25:59;;;;;;;9.07;7.90;;;4.20;1.00;;;;;;5049227;28;20440;-63
2021/12/21 00:28:25;;;;;;;13.03;7.97;;;4.20;1.00;;;;;;5049270;28;20450;-61
2021/12/21 00:30:51;;;;;;;8.90;6.33;;;4.20;1.00;;;;;;5048828;28;20532;-62
2021/12/21 00:33:17;;;;;;;11.53;7.07;;;4.20;1.00;;;;;;5047108;28;20453;-63
2021/12/21 00:35:43;;;;;;;15.23;8.10;;;4.20;1.00;;;;;;5049401;28;20453;-62
2021/12/21 00:38:08;;;;;;;10.40;7.10;;;4.20;1.00;;;;;;5050658;28;20499;-62
2021/12/21 00:40:34;;;;;;;14.57;7.87;;;;;;;;;;5049958;28;20188;-61
2021/12/21 00:43:00;;;;;;;14.07;8.60;;;4.10;1.00;;;;;;5049378;28;20212;-62
2021/12/21 00:45:25;;;;;;;11.07;7.40;;;4.10;1.00;;;;;;5049634;28;20530;-64
2021/12/21 00:47:51;;;;;;;13.00;7.70;;;4.20;1.00;;;;;;5049396;28;20262;-63
2021/12/21 00:50:18;;;;;;;12.27;8.07;;;4.20;1.00;;;;;;5049936;28;20189;-64
2021/12/21 00:52:49;;;;;;;11.67;8.93;;;4.10;1.00;;;;;;5047945;28;20198;-63
2021/12/21 00:55:16;;;;;;;10.60;7.97;;;4.20;1.00;;;;;;5046334;28;20463;-62
2021/12/21 00:57:42;;;;;;;14.90;8.20;;;4.20;1.00;;;;;;5045780;28;20563;-63
2021/12/21 01:00:10;;;;;;;12.80;8.20;;;4.10;1.00;;;;;;5049057;28;20584;-63
2021/12/21 01:02:36;;;;;;;10.13;8.50;;;;;;;;;;5049065;28;20275;-63
2021/12/21 01:05:03;;;;;;;11.63;8.17;;;4.00;1.00;;;;;;5049540;28;20551;-62
2021/12/21 01:07:37;;;;;;;15.63;9.17;;;4.00;1.00;;;;;;5049947;28;20446;-63
2021/12/21 01:10:34;;;;;;;12.20;8.47;;;4.00;1.00;;;;;;5049667;28;21051;-63
2021/12/21 01:18:11;;;;;;;11.37;8.37;;;4.10;1.00;;;;;;5048586;28;20524;-63
2021/12/21 01:20:41;;;;;;;14.50;9.47;;;4.10;1.00;;;;;;5050173;28;20445;-63
2021/12/21 01:23:41;;;;;;;12.43;9.23;;;4.00;1.00;;;;;;5049365;28;20530;-63
2021/12/21 01:26:15;;;;;;;14.80;9.60;;;4.00;1.00;;;;;;5043747;28;20452;-62
2021/12/21 01:31:42;;;;;;;14.00;9.60;;;4.10;1.00;;;;;;5047291;28;20908;-62
2021/12/21 01:34:23;;;;;;;16.77;9.87;;;4.10;1.00;;;;;;5047769;28;20439;-63
2021/12/21 01:41:58;;;;;;;14.20;10.30;;;4.20;1.00;;;;;;5048853;28;20173;-62
2021/12/21 01:49:49;;;;;;;18.03;10.87;;;4.00;1.00;;;;;;5049080;28;20240;-62
2021/12/21 01:52:18;;;;;;;15.87;10.53;;;4.00;1.00;;;;;;5045938;28;20484;-63
2021/12/21 01:54:44;;;;;;;14.57;10.27;;;4.00;1.00;;;;;;5044543;28;20464;-63
2021/12/21 01:57:11;;;;;;;16.13;9.80;;;4.20;1.00;;;;;;5045242;28;20867;-63
2021/12/21 01:59:39;;;;;;;18.63;10.10;;;3.90;1.00;;;;;;5043998;28;20454;-62
2021/12/21 02:02:08;;;;;;;15.17;10.80;;;3.90;1.00;;;;;;5049160;28;20441;-62
2021/12/21 02:04:37;;;;;;;16.20;9.87;;;3.80;1.00;;;;;;5048620;28;20556;-62
2021/12/21 02:07:04;;;;;;;13.43;10.33;;;3.80;1.00;;;;;;5047568;28;20460;-62
2021/12/21 02:09:37;;;;;;;12.90;9.60;;;3.80;1.00;;;;;;5047855;28;20462;-62
2021/12/21 02:12:04;;;;;;;16.00;9.63;;;3.90;1.00;;;;;;5049230;28;20522;-63
2021/12/21 02:14:30;;;;;;;15.60;10.03;;;3.90;1.00;;;;;;5049008;28;20569;-62
2021/12/21 02:19:56;;;;;;;13.93;9.87;;;3.90;1.00;;;;;;5045161;28;20729;-63
2021/12/21 02:22:24;;;;;;;20.60;10.83;;;4.00;1.00;;;;;;5048096;28;20443;-62
2021/12/21 02:25:20;;;;;;;16.77;10.80;;;4.00;1.00;;;;;;5043160;28;20811;-63
2021/12/21 02:30:23;;;;;;;13.70;10.57;;;3.90;1.00;;;;;;5048862;28;20478;-62
2021/12/21 02:32:50;;;;;;;23.43;11.30;;;3.90;1.00;;;;;;5052257;28;20831;-64
2021/12/21 02:35:16;;;;;;;17.10;10.73;;;3.80;1.00;;;;;;5052941;28;20544;-63
2021/12/21 02:37:41;;;;;;;20.77;11.77;;;3.90;1.00;;;;;;5061182;28;20571;-56
2021/12/21 02:40:08;;;;;;;15.77;11.00;;;3.80;1.00;;;;;;5057955;28;20467;-59
2021/12/21 02:42:34;;;;;;;13.97;10.67;;;3.90;1.00;;;;;;5058987;28;20639;-58
2021/12/21 02:44:59;;;;;;;12.23;10.17;;;3.80;1.00;;;;;;5054017;28;20471;-62
2021/12/21 02:47:25;;;;;;;14.87;12.10;;;;;;;;;;5052440;28;20506;-64
2021/12/21 02:49:51;;;;;;;16.10;11.33;;;3.70;1.00;;;;;;5049515;28;20701;-64
2021/12/21 02:52:16;;;;;;;15.07;10.17;;;3.70;1.00;;;;;;5050177;28;20449;-63
2021/12/21 02:54:42;;;;;;;13.83;10.00;;;3.70;1.00;;;;;;5052114;28;20186;-63
2021/12/21 02:57:08;;;;;;;17.23;9.70;;;3.90;1.00;;;;;;5048709;28;20312;-63
2021/12/21 02:59:33;;;;;;;17.10;10.77;;;3.90;1.00;;;;;;5049824;28;20189;-63
2021/12/21 03:01:59;;;;;;;13.70;9.93;;;4.00;1.00;;;;;;5042941;28;20293;-63
2021/12/21 03:04:25;;;;;;;16.23;10.90;;;4.00;1.00;;;;;;5049899;28;20174;-63
2021/12/21 03:09:40;;;;;;;23.23;11.23;;;4.20;1.00;;;;;;5051877;28;20460;-59
2021/12/21 03:12:27;;;;;;;18.23;11.73;;;4.20;1.00;;;;;;5053972;28;20454;-59
2021/12/21 03:14:52;;;;;;;15.10;10.43;;;4.10;1.00;;;;;;5048657;28;20968;-60
2021/12/21 03:17:19;;;;;;;20.17;10.70;;;4.10;1.00;;;;;;5052128;28;20463;-60
2021/12/21 03:19:45;;;;;;;18.83;10.13;;;3.90;1.00;;;;;;5050341;28;20206;-59
2021/12/21 03:22:12;;;;;;;16.03;12.10;;;3.90;1.00;;;;;;5051156;28;20994;-58
2021/12/21 03:24:38;;;;;;;14.40;10.60;;;3.90;1.00;;;;;;5050336;28;20463;-59
2021/12/21 03:27:05;;;;;;;18.80;10.57;;;3.80;1.00;;;;;;5047605;28;20806;-59
2021/12/21 03:29:32;;;;;;;15.07;9.77;;;3.80;1.00;;;;;;5050058;28;20455;-59
2021/12/21 03:31:57;;;;;;;16.90;11.10;;;3.90;1.00;;;;;;5053279;28;20481;-64
2021/12/21 03:34:24;;;;;;;18.43;10.90;;;3.80;1.00;;;;;;5050857;28;20463;-64
2021/12/21 03:36:50;;;;;;;17.50;11.87;;;3.90;1.00;;;;;;5050935;28;20462;-62
2021/12/21 03:39:19;;;;;;;14.33;10.30;;;4.00;1.00;;;;;;5051426;28;20447;-62
2021/12/21 03:41:50;;;;;;;17.20;11.07;;;3.90;1.00;;;;;;5051158;28;20451;-62
2021/12/21 03:44:17;;;;;;;13.33;9.83;;;3.90;1.00;;;;;;5051041;28;20600;-63
2021/12/21 03:46:49;;;;;;;15.50;12.17;;;3.90;1.00;;;;;;5051261;28;20448;-63
2021/12/21 03:52:00;;;;;;;18.70;11.30;;;4.10;1.00;;;;;;5045917;28;20452;-63
2021/12/21 03:54:26;;;;;;;19.23;12.17;;;4.10;1.00;;;;;;5047076;28;20584;-63
2021/12/21 03:56:52;;;;;;;19.03;11.20;;;4.10;1.00;;;;;;5033679;28;20472;-63
2021/12/21 03:59:19;;;;;;;15.10;11.30;;;4.00;1.00;;;;;;5041427;28;20562;-62
2021/12/21 04:01:45;;;;;;;19.90;11.63;;;4.10;1.00;;;;;;5043537;28;20482;-63
2021/12/21 04:04:11;;;;;;;16.07;11.07;;;4.00;1.00;;;;;;5049973;28;20538;-62
2021/12/21 04:06:37;;;;;;;17.00;12.00;;;4.00;1.00;;;;;;5049736;28;20553;-62
2021/12/21 04:09:05;;;;;;;17.27;11.13;;;4.10;1.00;;;;;;5050612;28;20526;-63
2021/12/21 04:11:31;;;;;;;17.20;11.60;;;4.00;1.00;;;;;;5047911;28;20499;-62
2021/12/21 04:13:58;;;;;;;15.60;9.97;;;3.90;1.00;;;;;;5049017;28;20937;-61
2021/12/21 04:16:24;;;;;;;17.27;11.53;;;;;;;;;;5049871;28;20455;-62
2021/12/21 04:18:49;;;;;;;17.47;11.83;;;3.90;1.00;;;;;;5050481;28;20447;-62
2021/12/21 04:21:15;;;;;;;15.60;12.10;;;3.90;1.00;;;;;;5047077;28;20492;-63
2021/12/21 04:23:42;;;;;;;15.97;11.23;;;4.00;1.00;;;;;;5050551;28;20192;-63
2021/12/21 04:26:09;;;;;;;19.57;12.33;;;4.00;1.00;;;;;;5047678;28;20224;-63
2021/12/21 04:28:35;;;;;;;22.10;13.57;;;4.10;1.00;;;;;;5044842;28;20482;-63
2021/12/21 04:31:01;;;;;;;15.37;11.33;;;4.00;1.00;;;;;;5049237;28;20514;-62
2021/12/21 04:33:28;;;;;;;16.17;11.90;;;3.90;1.00;;;;;;5046717;28;20449;-62
2021/12/21 04:35:54;;;;;;;16.70;11.73;;;3.90;1.00;;;;;;5050054;28;20451;-61
2021/12/21 04:40:48;;;;;;;15.00;12.50;;;4.00;1.00;;;;;;5049493;28;20190;-62
2021/12/21 04:43:14;;;;;;;15.60;11.60;;;4.00;1.00;;;;;;5050400;28;20675;-63
2021/12/21 04:45:39;;;;;;;17.10;11.77;;;4.00;1.00;;;;;;5048246;28;20454;-64
2021/12/21 04:48:05;;;;;;;16.13;11.23;;;3.80;1.00;;;;;;5046961;28;20610;-63
2021/12/21 04:50:31;;;;;;;17.83;11.80;;;4.00;1.00;;;;;;5048612;28;20210;-63
2021/12/21 04:52:57;;;;;;;18.50;12.10;;;3.90;1.00;;;;;;5045817;28;20542;-63
2021/12/21 04:55:22;;;;;;;16.63;12.13;;;4.10;1.00;;;;;;5046729;28;20412;-62
2021/12/21 04:57:48;;;;;;;23.27;13.00;;;4.10;1.00;;;;;;5048300;28;20235;-62
2021/12/21 05:00:14;;;;;;;26.13;13.27;;;4.10;1.00;;;;;;5049945;28;20190;-62
2021/12/21 05:02:40;;;;;;;20.37;12.40;;;4.20;1.00;;;;;;5049670;28;20245;-62
2021/12/21 05:05:06;;;;;;;21.00;12.67;;;4.00;1.00;;;;;;5047850;28;20431;-59
2021/12/21 05:07:35;;;;;;;19.40;12.83;;;;;;;;;;5047817;28;20628;-59
2021/12/21 05:10:03;;;;;;;16.47;13.77;;;3.90;1.00;;;;;;5047924;28;20455;-59
2021/12/21 05:12:29;;;;;;;16.80;12.37;;;4.00;1.00;;;;;;5048680;28;20992;-59
2021/12/21 05:14:56;;;;;;;18.13;13.60;;;3.90;1.00;;;;;;5049346;28;20439;-61
2021/12/21 05:17:22;;;;;;;19.50;13.80;;;3.80;1.00;;;;;;5047959;28;20205;-59
2021/12/21 05:19:49;;;;;;;20.70;12.40;;;3.90;1.00;;;;;;5055301;28;20509;-55
2021/12/21 05:22:15;;;;;;;20.17;12.87;;;4.00;1.00;;;;;;5045800;28;20527;-63
2021/12/21 05:24:41;;;;;;;19.50;13.23;;;4.00;1.00;;;;;;5049546;28;20453;-63
2021/12/21 05:27:08;;;;;;;20.40;12.20;;;4.00;1.00;;;;;;5048230;28;20440;-63
2021/12/21 05:29:34;;;;;;;16.70;12.00;;;3.90;1.00;;;;;;5049804;28;20537;-62
2021/12/21 05:31:59;;;;;;;21.40;13.17;;;4.00;1.00;;;;;;5049365;28;20561;-64
2021/12/21 05:34:26;;;;;;;21.83;13.53;;;4.00;1.00;;;;;;5049459;28;20197;-62
2021/12/21 05:36:52;;;;;;;16.40;12.53;;;;;;;;;;5048970;28;20291;-63
2021/12/21 05:39:22;;;;;;;22.67;14.67;;;3.80;1.00;;;;;;5049094;28;20542;-63
2021/12/21 05:44:15;;;;;;;18.93;13.00;;;4.00;1.00;;;;;;5049177;28;20454;-63
2021/12/21 05:46:40;;;;;;;17.67;13.13;;;3.90;1.00;;;;;;5048149;28;20678;-63
2021/12/21 05:49:06;;;;;;;15.80;13.00;;;4.00;1.00;;;;;;5049183;28;20417;-63
2021/12/21 05:51:32;;;;;;;25.00;13.03;;;3.90;1.00;;;;;;5049695;28;20189;-62
2021/12/21 05:53:57;;;;;;;22.10;13.30;;;3.90;1.00;;;;;;5049721;28;20217;-62
2021/12/21 05:56:23;;;;;;;22.20;12.97;;;3.90;1.00;;;;;;5046240;28;20203;-63
2021/12/21 05:58:49;;;;;;;16.10;12.97;;;4.00;1.00;;;;;;5048453;28;20197;-62
2021/12/21 06:01:14;;;;;;;21.00;12.60;;;4.00;1.00;;;;;;5047895;28;20667;-64
2021/12/21 06:03:40;;;;;;;17.33;13.30;;;4.00;1.00;;;;;;5047920;28;20197;-63
2021/12/21 06:06:12;;;;;;;21.97;14.00;;;4.00;1.00;;;;;;5053545;28;20185;-62
2021/12/21 06:08:38;;;;;;;21.90;13.03;;;4.00;1.00;;;;;;5056981;28;20244;-63
2021/12/21 06:11:06;;;;;;;18.43;13.07;;;3.90;1.00;;;;;;5053142;28;20439;-64
2021/12/21 06:16:25;;;;;;;19.90;12.67;;;;;;;;;;5053762;28;20440;-63
2021/12/21 06:26:52;;;;;;;16.00;11.27;;;;;;;;;;5052861;28;20453;-62
2021/12/21 06:29:18;;;;;;;19.33;12.20;;;;;;;;;;5052566;28;20486;-63
2021/12/21 06:31:44;;;;;;;21.67;13.10;;;3.90;1.00;;;;;;5052378;28;21010;-64
2021/12/21 06:34:10;;;;;;;17.50;12.77;;;3.90;1.00;;;;;;5052198;28;20454;-63
2021/12/21 06:36:36;;;;;;;22.20;12.20;;;3.90;1.00;;;;;;5052523;28;20506;-63
2021/12/21 06:39:02;;;;;;;18.47;13.67;;;3.70;1.00;;;;;;5051787;28;20249;-62
2021/12/21 06:41:27;;;;;;;16.80;13.20;;;3.80;1.00;;;;;;5052324;28;20181;-62
2021/12/21 06:43:53;;;;;;;21.37;14.07;;;3.80;1.00;;;;;;5052340;28;20512;-63
2021/12/21 06:46:44;;;;;;;17.63;11.77;;;3.70;1.00;;;;;;5052442;28;20194;-63
2021/12/21 06:51:52;;;;;;;17.90;11.97;;;;;;;;;;5052657;28;20447;-64
2021/12/21 06:54:18;;;;;;;18.53;12.00;;;3.60;1.00;;;;;;5049492;28;20452;-64
2021/12/21 06:56:43;;;;;;;18.03;12.73;;;3.50;1.00;;;;;;5063131;28;20512;-62
2021/12/21 06:59:09;;;;;;;21.03;13.60;;;3.50;1.00;;;;;;5052456;28;20435;-62
2021/12/21 07:01:38;;;;;;;20.90;12.80;;;3.40;1.00;;;;;;5052076;28;20182;-62
2021/12/21 07:04:05;;;;;;;20.63;12.90;;;3.40;1.00;;;;;;5054083;28;20439;-61
2021/12/21 07:06:32;;;;;;;20.80;13.97;;;3.40;1.00;;;;;;5052677;28;20917;-62
2021/12/21 07:19:31;;;;;;;21.47;12.93;;;3.90;1.00;;;;;;5052525;28;20599;-62
2021/12/21 07:21:57;;;;;;;16.90;11.87;;;;;;;;;;5050844;28;20582;-61
2021/12/21 07:24:24;;;;;;;19.47;12.07;;;4.00;1.00;;;;;;5050401;28;20181;-59
2021/12/21 07:26:50;;;;;;;14.57;11.53;;;4.00;1.00;;;;;;5051809;28;20453;-59
2021/12/21 07:29:16;;;;;;;20.13;12.70;;;4.10;1.00;;;;;;5051599;28;20410;-59
2021/12/21 07:31:41;;;;;;;17.87;12.10;;;4.20;1.00;;;;;;5051199;28;20243;-60
2021/12/21 07:34:07;;;;;;;18.40;11.60;;;4.30;1.00;;;;;;5061486;28;20439;-58
2021/12/21 07:36:34;;;;;;;17.23;12.10;;;4.30;1.00;;;;;;5051281;28;20231;-59
2021/12/21 07:39:01;;;;;;;17.73;10.13;;;4.30;1.00;;;;;;5050231;28;20179;-61
2021/12/21 07:41:26;;;;;;;17.83;11.60;;;4.30;1.00;;;;;;5051652;28;20949;-61
2021/12/21 07:43:52;;;;;;;15.73;10.87;;;4.20;1.00;;;;;;5051861;28;20441;-62
2021/12/21 07:46:18;;;;;;;22.97;12.27;;;4.20;1.00;;;;;;5050758;28;20285;-62
2021/12/21 07:48:44;;;;;;;14.13;11.23;;;4.30;1.00;;;;;;5059840;28;20173;-62
2021/12/21 07:51:10;;;;;;;18.63;11.03;;;4.10;1.00;;;;;;5051476;28;20461;-61
2021/12/21 07:53:36;;;;;;;18.73;11.77;;;4.20;1.00;;;;;;5060625;28;20189;-61
2021/12/21 07:56:03;;;;;;;17.73;13.30;;;4.10;1.00;;;;;;5051336;28;20437;-63
2021/12/21 07:58:30;;;;;;;20.70;12.53;;;3.90;1.00;;;;;;5051060;28;20455;-62
2021/12/21 08:00:57;;;;;;;19.80;12.03;;;3.90;1.00;;;;;;5051149;28;20446;-63
2021/12/21 08:03:22;;;;;;;18.60;12.23;;;3.90;1.00;;;;;;5050683;28;20510;-64
2021/12/21 08:05:51;;;;;;;23.10;13.53;;;4.00;1.00;;;;;;5052417;28;20953;-62
2021/12/21 08:08:21;;;;;;;17.20;11.53;;;4.00;1.00;;;;;;5055871;28;20182;-62
2021/12/21 08:11:10;;;;;;;19.60;11.77;;;;;;;;;;5053352;28;20797;-63
2021/12/21 08:13:38;;;;;;;18.93;13.73;;;3.90;1.00;;;;;;5055107;28;20454;-62
2021/12/21 08:16:03;;;;;;;19.03;13.40;;;3.90;1.00;;;;;;5052031;28;20445;-64
2021/12/21 08:18:29;;;;;;;19.83;12.47;;;3.80;1.00;;;;;;5051382;28;20892;-62
2021/12/21 08:20:55;;;;;;;27.23;14.07;;;3.70;1.00;;;;;;5052093;28;20416;-63
2021/12/21 08:23:20;;;;;;;24.73;14.07;;;3.80;1.00;;;;;;5051607;28;20181;-63
2021/12/21 08:25:46;;;;;;;19.83;12.30;;;3.70;1.00;;;;;;5050194;28;20610;-63
2021/12/21 08:28:12;;;;;;;22.73;14.30;;;3.70;1.00;;;;;;5060539;28;20195;-60
2021/12/21 08:30:38;;;;;;;25.33;14.40;;;3.70;1.00;;;;;;5053618;28;20709;-59
2021/12/21 08:33:04;;;;;;;33.47;19.00;;;3.80;1.00;;;;;;5059377;28;20440;-60
2021/12/21 08:35:31;;;;;;;22.53;15.00;;;3.80;1.00;;;;;;5070323;28;20408;-60
2021/12/21 08:38:04;;;;;;;28.10;16.37;;;3.80;1.00;;;;;;5063263;28;20812;-60
2021/12/21 08:40:37;;;;;;;30.27;18.37;;;3.90;1.00;;;;;;5052609;28;20440;-60
2021/12/21 08:43:08;;;;;;;32.33;21.03;;;3.60;1.00;;;;;;5064257;28;20439;-58
2021/12/21 08:45:36;;;;;;;32.30;19.57;;;3.60;1.00;;;;;;5060241;28;20440;-61
2021/12/21 08:48:05;;;;;;;34.77;21.23;;;3.50;1.00;;;;;;5063482;28;20961;-60
2021/12/21 08:50:30;;;;;;;31.17;20.53;;;;;;;;;;5062352;28;20436;-60
2021/12/21 08:52:57;;;;;;;37.13;21.53;;;3.50;1.00;;;;;;5065619;28;20503;-58
2021/12/21 08:55:23;;;;;;;29.77;19.90;;;3.50;1.00;;;;;;5065855;28;20455;-61
2021/12/21 08:57:48;;;;;;;34.47;21.17;;;3.70;1.00;;;;;;5064348;28;20832;-62
2021/12/21 09:00:14;;;;;;;34.83;20.73;;;3.40;1.00;;;;;;5070860;28;20254;-59
2021/12/21 09:02:40;;;;;;;41.20;22.53;;;;;;;;;;5070193;28;20234;-60
2021/12/21 09:05:11;;;;;;;30.53;19.60;;;3.50;1.00;;;;;;5070350;28;20528;-60
2021/12/21 09:07:45;;;;;;;32.63;22.00;;;3.60;1.00;;;;;;5070832;28;20829;-61
2021/12/21 09:10:13;;;;;;;34.60;21.20;;;3.80;1.00;;;;;;5060513;28;20861;-61
2021/12/21 09:12:39;;;;;;;28.93;19.40;;;;;;;;;;5050580;28;20471;-63
2021/12/21 09:15:07;;;;;;;32.00;19.57;;;3.70;1.00;;;;;;5049716;28;20473;-61
2021/12/21 09:17:32;;;;;;;37.23;19.90;;;3.70;1.00;;;;;;5050309;28;20466;-61
2021/12/21 09:19:58;;;;;;;30.67;18.37;;;3.80;1.00;;;;;;5050403;28;20448;-61
2021/12/21 09:22:24;;;;;;;29.97;19.23;;;3.80;1.00;;;;;;5050208;28;20651;-61
2021/12/21 09:24:50;;;;;;;35.80;19.50;;;3.90;1.00;;;;;;5046610;28;20639;-61
2021/12/21 09:27:16;;;;;;;29.17;17.57;;;;;;;;;;5050053;28;20501;-60
2021/12/21 09:29:43;;;;;;;28.10;17.27;;;3.80;1.00;;;;;;5049696;28;20490;-60
2021/12/21 09:32:13;;;;;;;28.10;16.63;;;3.80;1.00;;;;;;5050032;28;21226;-61
2021/12/21 09:34:40;;;;;;;31.53;16.00;;;3.80;1.00;;;;;;5049121;28;20448;-61
2021/12/21 09:37:06;;;;;;;28.90;18.30;;;;;;;;;;5062980;28;20806;-61
2021/12/21 09:39:32;;;;;;;24.40;15.50;;;4.10;1.00;;;;;;5069567;28;20492;-61
2021/12/21 09:41:58;;;;;;;22.80;13.50;;;3.90;1.00;;;;;;5057594;28;20944;-60
2021/12/21 09:44:24;;;;;;;23.53;15.77;;;;;;;;;;5049582;28;20199;-61
2021/12/21 09:46:50;;;;;;;27.00;14.80;;;3.90;1.00;;;;;;5049879;28;20432;-60
2021/12/21 09:49:16;;;;;;;22.10;13.90;;;;;;;;;;5050077;28;20467;-61
2021/12/21 09:51:42;;;;;;;26.90;16.47;;;4.00;1.00;;;;;;5050533;28;20208;-61
2021/12/21 09:54:08;;;;;;;22.50;13.73;;;4.00;1.00;;;;;;5049542;28;20854;-61
2021/12/21 09:56:34;;;;;;;18.33;12.90;;;3.90;1.00;;;;;;5050601;28;20427;-60
2021/12/21 09:59:01;;;;;;;16.27;11.17;;;3.90;1.00;;;;;;5049768;28;20591;-61
2021/12/21 10:01:27;;;;;;;20.43;12.70;;;3.90;1.00;;;;;;5050065;28;20439;-61
2021/12/21 10:03:52;;;;;;;25.33;13.47;;;3.80;1.00;;;;;;5049926;28;20448;-61
2021/12/21 10:06:18;;;;;;;22.67;13.40;;;3.90;1.00;;;;;;5050133;28;20181;-61
2021/12/21 10:08:44;;;;;;;18.00;13.53;;;3.80;1.00;;;;;;5049730;28;20240;-63
2021/12/21 10:11:22;;;;;;;19.50;12.40;;;4.00;1.00;;;;;;5060439;28;20543;-62
2021/12/21 10:13:48;;;;;;;19.57;12.93;;;4.10;1.00;;;;;;5049829;28;20674;-61
2021/12/21 10:16:19;;;;;;;19.57;14.47;;;3.90;1.00;;;;;;5049889;28;20439;-62
2021/12/21 10:18:44;;;;;;;16.80;10.20;;;3.80;1.00;;;;;;5048531;28;20585;-60
2021/12/21 10:21:13;;;;;;;17.47;10.80;;;3.80;1.00;;;;;;5049817;28;20825;-62
2021/12/21 10:23:44;;;;;;;20.30;11.50;;;3.90;1.00;;;;;;5047127;28;20276;-61
2021/12/21 10:26:12;;;;;;;20.33;12.73;;;3.90;1.00;;;;;;5049241;28;20431;-61
2021/12/21 10:28:43;;;;;;;22.23;12.70;;;3.90;1.00;;;;;;5049540;28;20494;-62
2021/12/21 10:31:20;;;;;;;19.10;11.83;;;4.00;1.00;;;;;;5049411;28;20472;-61
2021/12/21 10:33:46;;;;;;;19.13;11.93;;;3.90;1.00;;;;;;5049488;28;20501;-62
2021/12/21 10:36:12;;;;;;;17.00;11.40;;;4.00;1.00;;;;;;5048258;28;20421;-60
2021/12/21 10:38:50;;;;;;;16.30;12.30;;;4.00;1.00;;;;;;5049082;28;21101;-61
2021/12/21 10:41:19;;;;;;;16.90;11.87;;;4.20;1.00;;;;;;5044355;28;20453;-61
2021/12/21 10:44:07;;;;;;;19.40;11.67;;;4.20;1.00;;;;;;5048819;28;20460;-61
2021/12/21 10:46:36;;;;;;;17.10;12.67;;;4.20;1.00;;;;;;5046886;28;20942;-62
2021/12/21 10:49:13;;;;;;;16.57;11.50;;;4.40;1.00;;;;;;5068388;28;20428;-62
2021/12/21 10:52:00;;;;;;;18.40;10.73;;;4.30;1.00;;;;;;5054565;28;20782;-60
2021/12/21 10:54:34;;;;;;;18.40;11.80;;;4.40;1.00;;;;;;5052887;28;20452;-60
2021/12/21 10:57:02;;;;;;;21.60;11.17;;;4.60;1.00;;;;;;5053259;28;20529;-61
2021/12/21 10:59:33;;;;;;;18.23;11.23;;;4.50;1.00;;;;;;5064137;28;20597;-61
2021/12/21 11:02:10;;;;;;;17.23;10.80;;;4.40;1.00;;;;;;5072646;28;20406;-60
2021/12/21 11:04:42;;;;;;;20.03;11.73;;;4.30;1.00;;;;;;5072904;28;20478;-61
2021/12/21 11:10:01;;;;;;;12.10;10.20;;;4.30;1.00;;;;;;5052658;28;20446;-61
2021/12/21 11:12:28;;;;;;;17.17;10.27;;;4.20;1.00;;;;;;5052581;28;20771;-60
2021/12/21 11:14:57;;;;;;;16.17;9.57;;;;;;;;;;5052850;28;20501;-62
2021/12/21 11:17:23;;;;;;;14.23;10.63;;;;;;;;;;5052455;28;20914;-61
2021/12/21 11:19:53;;;;;;;11.90;9.53;;;;;;;;;;5052303;28;20459;-60
2021/12/21 11:22:21;;;;;;;17.20;10.47;;;4.40;1.00;;;;;;5050106;28;20454;-62
2021/12/21 11:24:48;;;;;;;15.30;9.40;;;4.50;1.00;;;;;;5072449;28;20441;-61
2021/12/21 11:27:15;;;;;;;15.63;9.57;;;4.40;1.00;;;;;;5055120;28;20534;-63
2021/12/21 11:29:43;;;;;;;13.03;8.63;;;4.40;1.00;;;;;;5052026;28;20457;-62
2021/12/21 11:32:10;;;;;;;12.97;9.97;;;4.50;1.00;;;;;;5051139;28;20521;-61
2021/12/21 11:34:57;;;;;;;16.47;10.70;;;4.50;1.00;;;;;;5051814;28;20449;-60
2021/12/21 11:37:27;;;;;;;12.90;9.23;;;4.40;1.00;;;;;;5051880;28;20489;-62
2021/12/21 11:39:54;;;;;;;12.97;8.83;;;4.40;1.00;;;;;;5053093;28;20511;-65
2021/12/21 11:42:30;;;;;;;15.83;8.80;;;4.40;1.00;;;;;;5051870;28;20495;-63
2021/12/21 11:45:03;;;;;;;10.83;8.30;;;4.40;1.00;;;;;;5066488;28;20450;-64
2021/12/21 11:47:39;;;;;;;16.70;9.60;;;4.40;1.00;;;;;;5058561;28;20459;-62
2021/12/21 11:50:08;;;;;;;12.67;9.13;;;4.40;1.00;;;;;;5050720;28;20858;-64
2021/12/21 11:52:49;;;;;;;11.27;8.83;;;4.40;1.00;;;;;;5052068;28;20468;-62
2021/12/21 11:55:16;;;;;;;14.83;8.43;;;4.40;1.00;;;;;;5049781;28;20602;-63
2021/12/21 11:57:45;;;;;;;12.93;9.80;;;4.30;1.00;;;;;;5049664;28;20505;-64
2021/12/21 12:00:18;;;;;;;12.27;8.33;;;4.30;1.00;;;;;;5051321;28;20445;-62
2021/12/21 12:02:45;;;;;;;12.23;7.77;;;4.30;1.00;;;;;;5050970;28;20570;-62
2021/12/21 12:05:29;;;;;;;10.30;7.43;;;4.30;1.00;;;;;;5049398;28;20463;-64
2021/12/21 12:08:10;;;;;;;14.03;8.60;;;4.40;1.00;;;;;;5059814;28;20467;-63
2021/12/21 12:10:38;;;;;;;14.43;9.83;;;4.50;1.00;;;;;;5051400;28;20483;-63
2021/12/21 12:13:27;;;;;;;10.20;7.20;;;4.50;1.00;;;;;;5050172;28;20447;-62
2021/12/21 12:16:15;;;;;;;12.53;7.57;;;4.60;1.00;;;;;;5048159;28;20451;-62
2021/12/21 12:18:48;;;;;;;10.23;7.90;;;4.70;1.00;;;;;;5051001;28;20464;-63
2021/12/21 12:21:28;;;;;;;11.80;8.50;;;4.60;1.00;;;;;;5051532;28;20444;-62
2021/12/21 12:24:01;;;;;;;12.07;6.70;;;4.60;1.00;;;;;;5051997;28;20441;-62
2021/12/21 12:26:28;;;;;;;12.87;7.37;;;4.50;1.00;;;;;;5050184;28;20440;-62
2021/12/21 12:28:57;;;;;;;14.07;7.70;;;4.60;1.00;;;;;;5064784;28;20449;-62
2021/12/21 12:31:34;;;;;;;10.07;8.53;;;4.60;1.00;;;;;;5051585;28;20977;-63
2021/12/21 12:34:00;;;;;;;9.40;6.23;;;4.80;1.00;;;;;;5051665;28;20440;-63
2021/12/21 12:36:38;;;;;;;10.07;6.70;;;4.90;1.00;;;;;;5051874;28;20439;-62
2021/12/21 12:39:06;;;;;;;8.80;6.40;;;4.80;1.00;;;;;;5052000;28;20438;-62
2021/12/21 12:41:44;;;;;;;11.63;7.00;;;4.70;1.00;;;;;;5051438;28;20439;-62
2021/12/21 12:44:22;;;;;;;7.70;6.70;;;4.60;1.00;;;;;;5049017;28;20800;-63
2021/12/21 12:46:58;;;;;;;7.53;6.73;;;4.60;1.00;;;;;;5051916;28;20490;-63
2021/12/21 12:49:26;;;;;;;7.43;6.63;;;4.50;1.00;;;;;;5050530;28;20510;-63
2021/12/21 12:52:06;;;;;;;13.17;8.13;;;4.60;1.00;;;;;;5050958;28;20805;-62
2021/12/21 12:54:53;;;;;;;12.00;8.40;;;4.50;1.00;;;;;;5051233;28;20522;-62
2021/12/21 12:57:36;;;;;;;15.80;7.67;;;4.50;1.00;;;;;;5050550;28;20464;-63
2021/12/21 13:00:41;;;;;;;12.43;8.50;;;4.50;1.00;;;;;;5051247;28;20435;-62
2021/12/21 13:03:09;;;;;;;11.00;8.00;;;4.40;1.00;;;;;;5017473;28;20448;-63
2021/12/21 13:05:41;;;;;;;12.50;7.63;;;4.20;1.00;;;;;;5051329;28;20455;-62
2021/12/21 13:08:07;;;;;;;15.37;8.20;;;4.30;1.00;;;;;;5061751;28;20796;-62
2021/12/21 13:10:36;;;;;;;11.87;7.27;;;4.40;1.00;;;;;;5071112;28;20518;-62
2021/12/21 13:13:02;;;;;;;13.60;8.70;;;4.30;1.00;;;;;;5070364;28;20432;-62
2021/12/21 13:15:37;;;;;;;11.40;8.57;;;4.40;1.00;;;;;;5070784;28;20439;-63
2021/12/21 13:18:05;;;;;;;14.33;8.10;;;4.20;1.00;;;;;;5070636;28;20476;-63
2021/12/21 13:20:35;;;;;;;14.17;8.20;;;4.30;1.00;;;;;;5060699;28;20440;-62
2021/12/21 13:23:20;;;;;;;11.23;8.93;;;4.30;1.00;;;;;;5050932;28;20428;-62
2021/12/21 13:26:09;;;;;;;11.17;8.80;;;4.20;1.00;;;;;;5056439;28;20524;-62
2021/12/21 13:28:47;;;;;;;11.50;8.13;;;4.20;1.00;;;;;;5069312;28;20435;-63
2021/12/21 13:31:16;;;;;;;14.87;9.17;;;4.30;1.00;;;;;;5069425;28;20465;-62
2021/12/21 13:33:42;;;;;;;15.60;10.33;;;4.30;1.00;;;;;;5070782;28;20929;-63
2021/12/21 13:36:08;;;;;;;12.20;8.90;;;4.20;1.00;;;;;;5070729;28;20519;-62
2021/12/21 13:38:37;;;;;;;13.17;9.00;;;4.10;1.00;;;;;;5066024;28;20335;-62
2021/12/21 13:41:02;;;;;;;12.23;8.77;;;4.20;1.00;;;;;;5049481;28;20493;-63
2021/12/21 13:43:28;;;;;;;12.10;10.13;;;4.40;1.00;;;;;;5055219;28;20867;-62
2021/12/21 13:45:59;;;;;;;14.90;8.67;;;4.40;1.00;;;;;;5052785;28;20265;-62
2021/12/21 13:48:25;;;;;;;13.80;9.63;;;4.50;1.00;;;;;;5058797;28;20241;-62
2021/12/21 13:50:51;;;;;;;17.37;9.83;;;4.50;1.00;;;;;;5065152;28;20447;-61
2021/12/21 13:53:19;;;;;;;16.17;11.03;;;4.50;1.00;;;;;;5069027;28;20188;-62
2021/12/21 13:55:48;;;;;;;11.10;9.27;;;4.30;1.00;;;;;;5068968;28;20442;-62
2021/12/21 13:58:14;;;;;;;18.90;10.83;;;4.20;1.00;;;;;;5068858;28;21056;-61
2021/12/21 14:00:54;;;;;;;14.43;10.50;;;4.30;1.00;;;;;;5070237;28;20530;-63
2021/12/21 14:03:27;;;;;;;15.73;10.80;;;4.30;1.00;;;;;;5051046;28;20182;-62
2021/12/21 14:06:01;;;;;;;15.07;9.93;;;4.30;1.00;;;;;;5066680;28;20441;-62
2021/12/21 14:08:26;;;;;;;10.37;9.20;;;4.40;1.00;;;;;;5061283;28;20519;-62
2021/12/21 14:10:55;;;;;;;10.23;8.53;;;4.30;1.00;;;;;;5050281;28;20544;-61